createdAt,value
2018-06-19T00:00:02.440Z,4.03
2018-06-19T00:01:12.449Z,4.65
2018-06-19T00:02:17.124Z,4.87
2018-06-19T00:03:21.327Z,4.47
2018-06-19T00:04:25.576Z,3.72
2018-06-19T00:05:31.420Z,4.20
2018-06-19T00:06:35.803Z,3.85
2018-06-19T00:07:40.150Z,3.90
2018-06-19T00:08:44.343Z,3.90
2018-06-19T00:09:49.894Z,4.37
2018-06-19T00:10:54.102Z,3.75
2018-06-19T00:11:58.319Z,4.22
2018-06-19T00:13:02.577Z,4.42
2018-06-19T00:14:06.898Z,5.12
2018-06-19T00:15:11.143Z,4.97
2018-06-19T00:16:15.610Z,4.90
2018-06-19T00:17:19.889Z,5.30
2018-06-19T00:18:26.732Z,5.33
2018-06-19T00:19:31.786Z,4.80
2018-06-19T00:20:35.936Z,5.20
2018-06-19T00:21:48.323Z,4.33
2018-06-19T00:22:52.827Z,4.53
2018-06-19T00:23:57.098Z,5.47
2018-06-19T00:25:01.324Z,5.83
2018-06-19T00:26:05.779Z,5.50
2018-06-19T00:27:09.967Z,6.55
2018-06-19T00:28:14.197Z,5.97
2018-06-19T00:29:18.375Z,5.17
2018-06-19T00:30:22.692Z,5.95
2018-06-19T00:31:26.987Z,8.95
2018-06-19T00:32:31.187Z,10.32
2018-06-19T00:33:35.500Z,14.35
2018-06-19T00:34:39.687Z,16.48
2018-06-19T00:35:43.861Z,15.50
2018-06-19T00:36:48.113Z,17.98
2018-06-19T00:37:52.448Z,14.95
2018-06-19T00:38:56.988Z,14.20
2018-06-19T00:40:01.197Z,14.03
2018-06-19T00:41:05.664Z,15.68
2018-06-19T00:42:09.875Z,13.45
2018-06-19T00:43:14.075Z,12.40
2018-06-19T00:44:18.238Z,11.38
2018-06-19T00:45:22.488Z,9.15
2018-06-19T00:46:28.559Z,9.43
2018-06-19T00:47:32.779Z,8.93
2018-06-19T00:48:37.218Z,6.92
2018-06-19T00:49:41.454Z,7.22
2018-06-19T00:50:45.819Z,6.30
2018-06-19T00:51:50.154Z,6.70
2018-06-19T00:52:54.366Z,6.25
2018-06-19T00:53:58.514Z,6.03
2018-06-19T00:55:02.720Z,5.95
2018-06-19T00:56:18.104Z,6.00
2018-06-19T00:57:22.308Z,6.08
2018-06-19T00:58:26.614Z,5.10
2018-06-19T00:59:31.239Z,6.33
2018-06-19T01:00:35.440Z,5.58
2018-06-19T01:01:39.608Z,5.05
2018-06-19T01:02:43.824Z,6.92
2018-06-19T01:03:48.186Z,5.87
2018-06-19T01:04:52.363Z,5.05
2018-06-19T01:05:56.556Z,4.87
2018-06-19T01:07:00.804Z,5.03
2018-06-19T01:08:04.962Z,5.33
2018-06-19T01:09:09.984Z,4.70
2018-06-19T01:10:14.167Z,4.75
2018-06-19T01:11:18.375Z,5.00
2018-06-19T01:12:22.541Z,5.50
2018-06-19T01:13:26.742Z,4.58
2018-06-19T01:14:30.926Z,5.35
2018-06-19T01:15:35.117Z,5.80
2018-06-19T01:16:39.250Z,4.72
2018-06-19T01:17:43.522Z,5.37
2018-06-19T01:18:47.786Z,4.67
2018-06-19T01:19:52.148Z,4.65
2018-06-19T01:20:56.340Z,4.92
2018-06-19T01:22:00.531Z,7.05
2018-06-19T01:23:05.173Z,5.08
2018-06-19T01:24:09.468Z,5.10
2018-06-19T01:25:13.675Z,6.12
2018-06-19T01:26:18.372Z,6.42
2018-06-19T01:27:23.149Z,6.50
2018-06-19T01:28:27.434Z,6.53
2018-06-19T01:29:31.848Z,10.85
2018-06-19T01:30:36.106Z,9.68
2018-06-19T01:31:40.314Z,14.75
2018-06-19T01:32:44.480Z,30.10
2018-06-19T01:33:48.650Z,31.12
2018-06-19T01:34:52.886Z,34.38
2018-06-19T01:35:57.098Z,34.85
2018-06-19T01:37:01.823Z,33.60
2018-06-19T01:38:06.106Z,33.28
2018-06-19T01:39:11.069Z,33.23
2018-06-19T01:40:15.348Z,28.25
2018-06-19T01:41:20.112Z,23.02
2018-06-19T01:42:24.939Z,20.70
2018-06-19T01:43:29.459Z,21.93
2018-06-19T01:44:33.718Z,17.50
2018-06-19T01:45:37.891Z,16.60
2018-06-19T01:46:42.104Z,16.67
2018-06-19T01:47:46.248Z,14.55
2018-06-19T01:48:50.719Z,13.08
2018-06-19T01:49:55.108Z,11.60
2018-06-19T01:50:59.535Z,10.13
2018-06-19T01:52:03.780Z,7.50
2018-06-19T01:53:08.378Z,8.68
2018-06-19T01:54:12.611Z,6.70
2018-06-19T01:55:16.883Z,5.60
2018-06-19T01:56:21.157Z,5.10
2018-06-19T01:57:25.396Z,4.90
2018-06-19T01:58:29.675Z,5.10
2018-06-19T01:59:34.114Z,5.37
2018-06-19T02:00:38.293Z,5.45
2018-06-19T02:01:42.488Z,5.80
2018-06-19T02:02:46.713Z,5.60
2018-06-19T02:03:50.889Z,5.03
2018-06-19T02:04:55.094Z,5.10
2018-06-19T02:05:59.282Z,4.10
2018-06-19T02:07:03.492Z,4.70
2018-06-19T02:08:07.689Z,5.25
2018-06-19T02:09:11.948Z,4.60
2018-06-19T02:10:16.183Z,5.22
2018-06-19T02:11:20.416Z,4.70
2018-06-19T02:12:24.660Z,5.90
2018-06-19T02:13:29.107Z,5.20
2018-06-19T02:14:34.190Z,4.80
2018-06-19T02:15:38.583Z,4.83
2018-06-19T02:16:42.932Z,6.17
2018-06-19T02:17:47.100Z,5.97
2018-06-19T02:18:51.396Z,5.33
2018-06-19T02:19:55.720Z,5.25
2018-06-19T02:20:59.895Z,5.33
2018-06-19T02:22:04.123Z,4.83
2018-06-19T02:23:08.303Z,6.45
2018-06-19T02:24:13.088Z,5.10
2018-06-19T02:25:17.261Z,4.50
2018-06-19T02:26:21.487Z,4.15
2018-06-19T02:27:25.625Z,5.00
2018-06-19T02:28:29.894Z,3.80
2018-06-19T02:29:34.188Z,4.75
2018-06-19T02:30:39.185Z,4.50
2018-06-19T02:31:43.505Z,4.05
2018-06-19T02:32:47.712Z,4.55
2018-06-19T02:33:51.868Z,4.17
2018-06-19T02:34:56.480Z,4.03
2018-06-19T02:36:00.674Z,4.12
2018-06-19T02:37:04.959Z,4.03
2018-06-19T02:38:09.277Z,4.50
2018-06-19T02:39:13.519Z,3.98
2018-06-19T02:40:17.923Z,4.78
2018-06-19T02:41:22.286Z,4.33
2018-06-19T02:42:26.454Z,4.58
2018-06-19T02:43:30.665Z,3.95
2018-06-19T02:44:35.018Z,3.87
2018-06-19T02:45:39.296Z,3.60
2018-06-19T02:46:43.451Z,4.60
2018-06-19T02:47:48.003Z,4.60
2018-06-19T02:48:53.370Z,4.30
2018-06-19T02:49:57.529Z,4.28
2018-06-19T02:51:01.698Z,4.40
2018-06-19T02:52:06.200Z,4.08
2018-06-19T02:53:10.341Z,3.87
2018-06-19T02:54:14.571Z,3.40
2018-06-19T02:55:18.835Z,4.05
2018-06-19T02:56:23.017Z,4.62
2018-06-19T02:57:27.232Z,4.85
2018-06-19T02:58:31.724Z,4.45
2018-06-19T02:59:36.144Z,4.10
2018-06-19T03:00:40.361Z,4.60
2018-06-19T03:01:44.598Z,4.78
2018-06-19T03:02:48.815Z,4.85
2018-06-19T03:03:53.015Z,4.85
2018-06-19T03:04:57.200Z,5.67
2018-06-19T03:06:01.421Z,4.45
2018-06-19T03:07:05.630Z,4.53
2018-06-19T03:08:09.876Z,5.20
2018-06-19T03:09:14.212Z,5.83
2018-06-19T03:10:18.659Z,4.45
2018-06-19T03:11:22.889Z,5.35
2018-06-19T03:12:27.153Z,5.10
2018-06-19T03:13:31.365Z,4.78
2018-06-19T03:14:35.755Z,4.95
2018-06-19T03:15:39.911Z,4.95
2018-06-19T03:16:44.130Z,5.83
2018-06-19T03:17:48.309Z,5.28
2018-06-19T03:18:52.541Z,5.50
2018-06-19T03:19:56.745Z,4.58
2018-06-19T03:21:01.217Z,4.15
2018-06-19T03:22:05.583Z,4.80
2018-06-19T03:23:09.776Z,4.70
2018-06-19T03:24:13.963Z,4.40
2018-06-19T03:25:18.147Z,5.22
2018-06-19T03:26:22.312Z,4.37
2018-06-19T03:27:26.757Z,4.87
2018-06-19T03:28:31.031Z,4.97
2018-06-19T03:29:35.721Z,5.33
2018-06-19T03:30:39.887Z,4.28
2018-06-19T03:31:44.067Z,4.25
2018-06-19T03:32:48.252Z,4.97
2018-06-19T03:33:53.113Z,4.10
2018-06-19T03:34:57.422Z,4.92
2018-06-19T03:36:01.718Z,5.80
2018-06-19T03:37:05.903Z,5.15
2018-06-19T03:38:10.167Z,5.67
2018-06-19T03:39:14.443Z,5.17
2018-06-19T03:40:18.681Z,5.70
2018-06-19T03:41:22.958Z,5.40
2018-06-19T03:42:27.325Z,5.80
2018-06-19T03:43:31.635Z,5.83
2018-06-19T03:44:36.536Z,4.97
2018-06-19T03:45:41.140Z,5.17
2018-06-19T03:46:45.266Z,5.33
2018-06-19T03:47:49.481Z,5.37
2018-06-19T03:48:54.579Z,5.40
2018-06-19T03:49:58.762Z,5.42
2018-06-19T03:51:02.994Z,5.42
2018-06-19T03:52:07.204Z,5.17
2018-06-19T03:53:11.415Z,6.03
2018-06-19T03:54:15.686Z,5.40
2018-06-19T03:55:20.378Z,5.25
2018-06-19T03:56:24.803Z,5.50
2018-06-19T03:57:29.138Z,5.40
2018-06-19T03:58:33.405Z,5.33
2018-06-19T03:59:37.653Z,6.87
2018-06-19T04:00:41.955Z,5.47
2018-06-19T04:01:46.149Z,6.25
2018-06-19T04:02:51.050Z,5.47
2018-06-19T04:03:55.432Z,5.95
2018-06-19T04:04:59.878Z,5.87
2018-06-19T04:06:04.238Z,5.15
2018-06-19T04:07:08.527Z,6.20
2018-06-19T04:08:12.744Z,7.28
2018-06-19T04:09:17.003Z,4.60
2018-06-19T04:10:21.215Z,5.70
2018-06-19T04:11:25.585Z,5.55
2018-06-19T04:12:29.928Z,6.25
2018-06-19T04:13:34.216Z,5.33
2018-06-19T04:14:38.384Z,5.55
2018-06-19T04:15:42.570Z,4.95
2018-06-19T04:16:46.811Z,6.00
2018-06-19T04:17:51.031Z,5.50
2018-06-19T04:18:55.460Z,5.28
2018-06-19T04:19:59.832Z,4.87
2018-06-19T04:21:04.267Z,5.60
2018-06-19T04:22:08.459Z,5.05
2018-06-19T04:23:12.648Z,6.47
2018-06-19T04:24:16.854Z,4.70
2018-06-19T04:25:21.103Z,5.10
2018-06-19T04:26:25.262Z,6.03
2018-06-19T04:27:29.755Z,5.25
2018-06-19T04:28:33.924Z,5.42
2018-06-19T04:29:38.079Z,5.20
2018-06-19T04:30:42.255Z,5.08
2018-06-19T04:31:46.440Z,4.78
2018-06-19T04:32:50.656Z,5.80
2018-06-19T04:33:54.923Z,5.97
2018-06-19T04:34:59.170Z,5.55
2018-06-19T04:36:03.459Z,5.22
2018-06-19T04:37:07.720Z,4.92
2018-06-19T04:38:11.913Z,5.72
2018-06-19T04:39:16.180Z,5.17
2018-06-19T04:40:20.381Z,5.55
2018-06-19T04:41:24.560Z,5.45
2018-06-19T04:42:29.102Z,5.65
2018-06-19T04:43:33.647Z,6.70
2018-06-19T04:44:37.859Z,6.40
2018-06-19T04:45:42.136Z,5.80
2018-06-19T04:46:46.688Z,6.40
2018-06-19T04:47:50.867Z,5.80
2018-06-19T04:48:55.987Z,5.55
2018-06-19T04:50:00.204Z,6.25
2018-06-19T04:51:04.396Z,5.75
2018-06-19T04:52:08.636Z,6.85
2018-06-19T04:53:12.827Z,6.00
2018-06-19T04:54:17.148Z,6.40
2018-06-19T04:55:21.501Z,6.75
2018-06-19T04:56:25.768Z,6.28
2018-06-19T04:57:29.983Z,7.00
2018-06-19T04:58:34.236Z,6.03
2018-06-19T04:59:38.729Z,6.20
2018-06-19T05:00:43.029Z,6.50
2018-06-19T05:01:47.213Z,5.80
2018-06-19T05:02:51.453Z,6.37
2018-06-19T05:03:56.147Z,6.92
2018-06-19T05:05:00.187Z,6.50
2018-06-19T05:06:04.421Z,6.20
2018-06-19T05:07:08.657Z,6.58
2018-06-19T05:08:13.006Z,6.53
2018-06-19T05:09:17.546Z,6.70
2018-06-19T05:10:22.026Z,7.05
2018-06-19T05:11:26.339Z,7.00
2018-06-19T05:12:30.603Z,7.03
2018-06-19T05:13:35.035Z,8.75
2018-06-19T05:14:39.321Z,6.92
2018-06-19T05:15:43.778Z,6.83
2018-06-19T05:16:48.176Z,6.70
2018-06-19T05:17:52.342Z,7.15
2018-06-19T05:18:56.704Z,7.47
2018-06-19T05:20:00.997Z,6.40
2018-06-19T05:21:05.244Z,8.10
2018-06-19T05:22:09.517Z,6.65
2018-06-19T05:23:13.874Z,7.10
2018-06-19T05:24:18.198Z,7.37
2018-06-19T05:25:23.298Z,7.17
2018-06-19T05:26:27.723Z,7.60
2018-06-19T05:27:31.897Z,6.95
2018-06-19T05:28:36.243Z,6.85
2018-06-19T05:29:40.546Z,6.58
2018-06-19T05:30:44.894Z,6.72
2018-06-19T05:31:49.146Z,6.75
2018-06-19T05:32:54.525Z,7.28
2018-06-19T05:33:58.742Z,7.22
2018-06-19T05:35:03.081Z,7.05
2018-06-19T05:36:07.263Z,7.72
2018-06-19T05:37:12.248Z,7.17
2018-06-19T05:38:16.559Z,7.50
2018-06-19T05:39:20.995Z,7.37
2018-06-19T05:40:25.235Z,6.12
2018-06-19T05:41:29.587Z,7.00
2018-06-19T05:42:33.824Z,7.62
2018-06-19T05:43:38.063Z,7.30
2018-06-19T05:44:42.412Z,6.20
2018-06-19T05:45:46.664Z,7.05
2018-06-19T05:46:51.127Z,5.75
2018-06-19T05:47:55.397Z,7.03
2018-06-19T05:48:59.823Z,7.00
2018-06-19T05:50:04.285Z,7.42
2018-06-19T05:51:08.969Z,7.05
2018-06-19T05:52:13.318Z,7.30
2018-06-19T05:53:17.830Z,6.87
2018-06-19T05:54:22.064Z,7.25
2018-06-19T05:55:26.282Z,6.75
2018-06-19T05:56:30.654Z,7.70
2018-06-19T05:57:35.040Z,7.78
2018-06-19T05:58:39.323Z,7.65
2018-06-19T05:59:43.630Z,6.80
2018-06-19T06:00:47.861Z,7.15
2018-06-19T06:01:52.316Z,7.62
2018-06-19T06:02:56.516Z,7.35
2018-06-19T06:04:00.872Z,6.83
2018-06-19T06:05:05.244Z,7.05
2018-06-19T06:06:09.464Z,7.75
2018-06-19T06:07:14.139Z,7.15
2018-06-19T06:08:18.608Z,6.97
2018-06-19T06:09:23.020Z,6.60
2018-06-19T06:10:27.265Z,8.20
2018-06-19T06:11:32.535Z,7.15
2018-06-19T06:12:36.735Z,8.25
2018-06-19T06:13:40.900Z,7.72
2018-06-19T06:14:45.235Z,7.35
2018-06-19T06:15:49.394Z,7.50
2018-06-19T06:16:53.546Z,6.80
2018-06-19T06:17:57.751Z,7.95
2018-06-19T06:19:02.149Z,8.00
2018-06-19T06:20:06.818Z,7.70
2018-06-19T06:21:11.011Z,8.00
2018-06-19T06:22:15.277Z,8.38
2018-06-19T06:23:19.415Z,7.17
2018-06-19T06:24:23.617Z,8.05
2018-06-19T06:25:27.847Z,8.00
2018-06-19T06:26:32.059Z,8.53
2018-06-19T06:27:36.255Z,8.73
2018-06-19T06:28:40.421Z,7.80
2018-06-19T06:29:44.535Z,8.70
2018-06-19T06:30:48.876Z,7.65
2018-06-19T06:31:53.024Z,7.97
2018-06-19T06:32:57.587Z,9.15
2018-06-19T06:34:01.834Z,8.05
2018-06-19T06:35:06.068Z,7.78
2018-06-19T06:36:10.319Z,8.53
2018-06-19T06:37:14.551Z,8.53
2018-06-19T06:38:18.708Z,7.50
2018-06-19T06:39:23.032Z,7.95
2018-06-19T06:40:27.195Z,8.25
2018-06-19T06:41:31.633Z,8.80
2018-06-19T06:42:35.888Z,7.92
2018-06-19T06:43:40.061Z,7.50
2018-06-19T06:44:44.225Z,8.08
2018-06-19T06:45:48.489Z,8.43
2018-06-19T06:46:52.658Z,6.78
2018-06-19T06:47:56.878Z,8.25
2018-06-19T06:49:01.226Z,9.00
2018-06-19T06:50:05.495Z,7.65
2018-06-19T06:51:09.679Z,8.43
2018-06-19T06:52:13.810Z,8.70
2018-06-19T06:53:18.002Z,7.83
2018-06-19T06:54:22.405Z,8.78
2018-06-19T06:55:26.615Z,8.93
2018-06-19T06:56:30.997Z,8.98
2018-06-19T06:57:35.162Z,10.05
2018-06-19T06:58:39.317Z,9.08
2018-06-19T06:59:43.550Z,9.15
2018-06-19T07:00:48.041Z,8.75
2018-06-19T07:01:52.497Z,8.45
2018-06-19T07:02:56.704Z,9.28
2018-06-19T07:04:00.906Z,8.95
2018-06-19T07:05:05.101Z,9.40
2018-06-19T07:06:09.319Z,9.28
2018-06-19T07:07:13.523Z,9.38
2018-06-19T07:08:18.131Z,9.03
2018-06-19T07:09:22.312Z,8.75
2018-06-19T07:10:26.588Z,8.70
2018-06-19T07:11:30.809Z,8.45
2018-06-19T07:12:34.999Z,8.30
2018-06-19T07:13:39.207Z,8.35
2018-06-19T07:14:43.354Z,8.40
2018-06-19T07:15:47.872Z,8.55
2018-06-19T07:16:52.100Z,8.75
2018-06-19T07:17:56.297Z,9.28
2018-06-19T07:19:00.795Z,8.55
2018-06-19T07:20:04.980Z,8.45
2018-06-19T07:21:09.174Z,8.90
2018-06-19T07:22:13.330Z,7.65
2018-06-19T07:23:17.571Z,9.23
2018-06-19T07:24:21.950Z,8.80
2018-06-19T07:25:26.210Z,8.78
2018-06-19T07:26:30.404Z,8.60
2018-06-19T07:27:34.854Z,8.93
2018-06-19T07:28:39.043Z,9.05
2018-06-19T07:29:43.266Z,9.15
2018-06-19T07:30:47.482Z,9.43
2018-06-19T07:31:51.647Z,8.80
2018-06-19T07:32:55.963Z,9.13
2018-06-19T07:34:00.156Z,9.33
2018-06-19T07:35:04.460Z,9.10
2018-06-19T07:36:08.700Z,10.98
2018-06-19T07:37:12.868Z,9.20
2018-06-19T07:38:17.083Z,9.80
2018-06-19T07:39:21.335Z,9.38
2018-06-19T07:40:25.504Z,8.85
2018-06-19T07:41:29.768Z,9.95
2018-06-19T07:42:33.997Z,10.48
2018-06-19T07:43:38.407Z,9.55
2018-06-19T07:44:42.547Z,9.43
2018-06-19T07:45:46.784Z,9.73
2018-06-19T07:46:50.988Z,10.00
2018-06-19T07:47:55.139Z,9.18
2018-06-19T07:48:59.319Z,10.45
2018-06-19T07:50:04.050Z,10.20
2018-06-19T07:51:08.271Z,10.25
2018-06-19T07:52:12.422Z,9.45
2018-06-19T07:53:16.603Z,10.35
2018-06-19T07:54:20.735Z,9.88
2018-06-19T07:55:25.085Z,9.90
2018-06-19T07:56:29.315Z,10.75
2018-06-19T07:57:33.575Z,10.48
2018-06-19T07:58:37.789Z,11.63
2018-06-19T07:59:41.972Z,10.30
2018-06-19T08:00:46.282Z,10.90
2018-06-19T08:01:50.446Z,10.85
2018-06-19T08:02:54.756Z,10.50
2018-06-19T08:03:58.891Z,10.40
2018-06-19T08:05:03.679Z,11.45
2018-06-19T08:06:07.847Z,10.48
2018-06-19T08:07:12.899Z,9.83
2018-06-19T08:08:17.290Z,11.20
2018-06-19T08:09:21.538Z,10.43
2018-06-19T08:10:25.771Z,10.10
2018-06-19T08:11:29.960Z,11.28
2018-06-19T08:12:34.132Z,10.10
2018-06-19T08:13:38.339Z,10.78
2018-06-19T08:14:42.500Z,11.28
2018-06-19T08:15:46.681Z,10.25
2018-06-19T08:16:50.945Z,11.03
2018-06-19T08:17:55.211Z,12.68
2018-06-19T08:18:59.372Z,12.30
2018-06-19T08:20:03.634Z,10.82
2018-06-19T08:21:07.949Z,11.90
2018-06-19T08:22:12.144Z,10.78
2018-06-19T08:23:16.421Z,11.88
2018-06-19T08:24:20.556Z,10.68
2018-06-19T08:25:24.932Z,11.30
2018-06-19T08:26:29.085Z,13.48
2018-06-19T08:27:33.246Z,12.35
2018-06-19T08:28:37.412Z,11.75
2018-06-19T08:29:41.622Z,11.33
2018-06-19T08:30:45.865Z,11.70
2018-06-19T08:31:50.053Z,11.30
2018-06-19T08:32:54.311Z,12.53
2018-06-19T08:33:58.631Z,12.25
2018-06-19T08:35:02.826Z,12.20
2018-06-19T08:36:07.275Z,12.58
2018-06-19T08:37:11.781Z,12.05
2018-06-19T08:38:15.993Z,12.55
2018-06-19T08:39:20.199Z,12.75
2018-06-19T08:40:24.546Z,11.45
2018-06-19T08:41:28.756Z,12.75
2018-06-19T08:42:32.949Z,12.60
2018-06-19T08:43:37.367Z,12.53
2018-06-19T08:44:41.600Z,12.35
2018-06-19T08:45:45.792Z,13.13
2018-06-19T08:46:49.971Z,13.18
2018-06-19T08:47:54.258Z,13.03
2018-06-19T08:48:58.395Z,13.55
2018-06-19T08:50:02.895Z,12.95
2018-06-19T08:51:07.224Z,12.03
2018-06-19T08:52:11.375Z,13.62
2018-06-19T08:53:15.993Z,14.90
2018-06-19T08:54:20.499Z,14.65
2018-06-19T08:55:24.649Z,12.70
2018-06-19T08:56:29.115Z,13.28
2018-06-19T08:57:33.321Z,14.55
2018-06-19T08:58:37.499Z,12.50
2018-06-19T08:59:41.695Z,12.75
2018-06-19T09:00:45.911Z,13.55
2018-06-19T09:01:50.083Z,12.68
2018-06-19T09:02:54.553Z,12.63
2018-06-19T09:03:58.848Z,12.63
2018-06-19T09:05:03.236Z,12.30
2018-06-19T09:06:07.443Z,12.88
2018-06-19T09:07:11.698Z,13.43
2018-06-19T09:08:15.989Z,11.60
2018-06-19T09:09:20.171Z,13.53
2018-06-19T09:10:24.338Z,14.10
2018-06-19T09:11:28.591Z,14.07
2018-06-19T09:12:32.767Z,12.50
2018-06-19T09:13:36.961Z,12.80
2018-06-19T09:14:41.141Z,12.73
2018-06-19T09:15:45.422Z,13.30
2018-06-19T09:16:49.651Z,13.08
2018-06-19T09:17:53.893Z,12.23
2018-06-19T09:18:58.119Z,12.60
2018-06-19T09:20:02.423Z,12.63
2018-06-19T09:21:07.495Z,13.53
2018-06-19T09:22:11.726Z,13.95
2018-06-19T09:23:15.911Z,13.45
2018-06-19T09:24:20.243Z,13.08
2018-06-19T09:25:24.534Z,13.40
2018-06-19T09:26:28.769Z,12.58
2018-06-19T09:27:33.148Z,13.10
2018-06-19T09:28:37.702Z,12.30
2018-06-19T09:29:42.109Z,12.50
2018-06-19T09:30:46.458Z,11.97
2018-06-19T09:31:50.912Z,12.70
2018-06-19T09:32:55.175Z,12.73
2018-06-19T09:33:59.572Z,12.95
2018-06-19T09:35:04.432Z,14.85
2018-06-19T09:36:08.888Z,13.72
2018-06-19T09:37:13.177Z,11.00
2018-06-19T09:38:17.607Z,11.93
2018-06-19T09:39:21.808Z,13.80
2018-06-19T09:40:26.008Z,14.65
2018-06-19T09:41:30.238Z,12.13
2018-06-19T09:42:34.454Z,11.33
2018-06-19T09:43:38.667Z,12.50
2018-06-19T09:44:42.906Z,12.88
2018-06-19T09:45:47.135Z,10.30
2018-06-19T09:46:51.318Z,10.40
2018-06-19T09:47:55.512Z,12.55
2018-06-19T09:48:59.730Z,10.53
2018-06-19T09:50:04.084Z,10.30
2018-06-19T09:51:08.261Z,10.65
2018-06-19T09:52:12.418Z,10.35
2018-06-19T09:53:16.665Z,10.98
2018-06-19T09:54:21.023Z,10.95
2018-06-19T09:55:25.287Z,11.20
2018-06-19T09:56:29.479Z,11.60
2018-06-19T09:57:33.763Z,10.50
2018-06-19T09:58:38.070Z,10.80
2018-06-19T09:59:42.415Z,10.75
2018-06-19T10:00:46.689Z,11.15
2018-06-19T10:01:50.937Z,10.20
2018-06-19T10:02:55.457Z,10.50
2018-06-19T10:03:59.709Z,10.35
2018-06-19T10:05:04.048Z,10.55
2018-06-19T10:06:08.281Z,10.32
2018-06-19T10:07:12.531Z,10.65
2018-06-19T10:08:16.738Z,11.22
2018-06-19T10:09:20.965Z,13.32
2018-06-19T10:10:25.359Z,11.40
2018-06-19T10:11:29.757Z,9.80
2018-06-19T10:12:33.931Z,12.80
2018-06-19T10:13:38.179Z,10.80
2018-06-19T10:14:42.463Z,10.32
2018-06-19T10:15:46.945Z,10.82
2018-06-19T10:16:51.163Z,10.50
2018-06-19T10:17:55.347Z,10.82
2018-06-19T10:18:59.555Z,10.58
2018-06-19T10:20:03.847Z,10.95
2018-06-19T10:21:08.063Z,10.70
2018-06-19T10:22:12.571Z,10.00
2018-06-19T10:23:16.771Z,11.25
2018-06-19T10:24:20.987Z,11.05
2018-06-19T10:25:25.242Z,11.18
2018-06-19T10:26:29.460Z,11.78
2018-06-19T10:27:33.636Z,10.85
2018-06-19T10:28:37.898Z,11.28
2018-06-19T10:29:42.503Z,11.03
2018-06-19T10:30:47.295Z,11.38
2018-06-19T10:31:51.632Z,11.60
2018-06-19T10:32:55.886Z,11.10
2018-06-19T10:34:00.648Z,10.15
2018-06-19T10:35:05.045Z,12.45
2018-06-19T10:36:09.259Z,12.23
2018-06-19T10:37:13.503Z,11.63
2018-06-19T10:38:17.744Z,10.95
2018-06-19T10:39:21.981Z,11.20
2018-06-19T10:40:26.183Z,10.53
2018-06-19T10:41:30.455Z,12.37
2018-06-19T10:42:34.660Z,11.12
2018-06-19T10:43:38.893Z,11.85
2018-06-19T10:44:43.196Z,11.05
2018-06-19T10:45:47.418Z,10.53
2018-06-19T10:46:51.629Z,12.05
2018-06-19T10:47:55.972Z,11.48
2018-06-19T10:49:00.177Z,11.53
2018-06-19T10:50:04.653Z,11.80
2018-06-19T10:51:08.967Z,10.48
2018-06-19T10:52:13.232Z,11.15
2018-06-19T10:53:17.591Z,11.15
2018-06-19T10:54:21.854Z,12.00
2018-06-19T10:55:26.147Z,12.65
2018-06-19T10:56:30.579Z,10.93
2018-06-19T10:57:38.143Z,11.55
2018-06-19T10:58:42.334Z,10.00
2018-06-19T10:59:46.676Z,10.88
2018-06-19T11:00:50.827Z,11.22
2018-06-19T11:01:55.136Z,11.00
2018-06-19T11:02:59.340Z,10.28
2018-06-19T11:04:03.608Z,11.18
2018-06-19T11:05:07.812Z,10.90
2018-06-19T11:06:11.974Z,11.43
2018-06-19T11:07:16.270Z,9.95
2018-06-19T11:08:20.535Z,9.85
2018-06-19T11:09:24.758Z,11.00
2018-06-19T11:10:28.977Z,10.65
2018-06-19T11:11:33.387Z,10.35
2018-06-19T11:12:37.572Z,10.28
2018-06-19T11:13:41.727Z,10.53
2018-06-19T11:14:46.680Z,9.40
2018-06-19T11:15:50.854Z,9.33
2018-06-19T11:16:55.112Z,10.30
2018-06-19T11:17:59.316Z,11.20
2018-06-19T11:19:03.530Z,10.83
2018-06-19T11:20:08.712Z,10.10
2018-06-19T11:21:13.216Z,9.93
2018-06-19T11:22:17.521Z,9.95
2018-06-19T11:23:21.855Z,9.38
2018-06-19T11:24:26.143Z,10.50
2018-06-19T11:25:30.462Z,10.50
2018-06-19T11:26:34.769Z,10.27
2018-06-19T11:27:38.930Z,9.40
2018-06-19T11:28:43.139Z,9.80
2018-06-19T11:29:47.305Z,9.15
2018-06-19T11:30:51.525Z,10.43
2018-06-19T11:31:55.844Z,9.98
2018-06-19T11:33:00.087Z,10.03
2018-06-19T11:34:04.183Z,11.80
2018-06-19T11:35:08.473Z,10.00
2018-06-19T11:36:12.979Z,11.43
2018-06-19T11:37:17.475Z,9.73
2018-06-19T11:38:21.718Z,9.70
2018-06-19T11:39:25.880Z,9.38
2018-06-19T11:40:30.064Z,9.63
2018-06-19T11:41:34.274Z,8.10
2018-06-19T11:42:38.500Z,8.83
2018-06-19T11:43:42.799Z,8.08
2018-06-19T11:44:46.985Z,8.73
2018-06-19T11:45:51.139Z,8.65
2018-06-19T11:46:55.352Z,10.03
2018-06-19T11:47:59.502Z,9.10
2018-06-19T11:49:03.744Z,7.87
2018-06-19T11:50:08.294Z,8.40
2018-06-19T11:51:12.460Z,9.05
2018-06-19T11:52:16.695Z,9.00
2018-06-19T11:53:20.864Z,9.13
2018-06-19T11:54:25.127Z,9.50
2018-06-19T11:55:29.248Z,8.70
2018-06-19T11:56:33.423Z,8.87
2018-06-19T11:57:37.622Z,9.47
2018-06-19T11:58:41.788Z,8.50
2018-06-19T11:59:46.490Z,9.20
2018-06-19T12:00:51.183Z,7.55
2018-06-19T12:01:55.470Z,7.57
2018-06-19T12:02:59.949Z,7.57
2018-06-19T12:04:04.115Z,8.13
2018-06-19T12:05:08.608Z,8.03
2018-06-19T12:06:12.840Z,6.13
2018-06-19T12:07:17.140Z,6.60
2018-06-19T12:08:21.363Z,7.00
2018-06-19T12:09:25.571Z,8.20
2018-06-19T12:10:30.099Z,9.03
2018-06-19T12:11:34.279Z,7.90
2018-06-19T12:12:38.945Z,8.43
2018-06-19T12:13:43.216Z,8.47
2018-06-19T12:14:47.687Z,8.40
2018-06-19T12:15:51.970Z,9.47
2018-06-19T12:16:56.245Z,7.80
2018-06-19T12:18:00.692Z,8.40
2018-06-19T12:19:04.910Z,8.50
2018-06-19T12:20:09.647Z,9.33
2018-06-19T12:21:13.852Z,8.20
2018-06-19T12:22:18.025Z,6.87
2018-06-19T12:23:22.733Z,5.80
2018-06-19T12:24:26.952Z,5.60
2018-06-19T12:25:31.523Z,5.27
2018-06-19T12:26:35.787Z,6.00
2018-06-19T12:27:40.029Z,8.60
2018-06-19T12:28:44.232Z,8.03
2018-06-19T12:29:48.471Z,8.73
2018-06-19T12:30:52.734Z,7.40
2018-06-19T12:31:56.919Z,8.80
2018-06-19T12:33:01.091Z,8.60
2018-06-19T12:34:07.098Z,7.80
2018-06-19T12:35:15.194Z,7.13
2018-06-19T12:36:24.789Z,6.63
2018-06-19T12:37:29.645Z,6.60
2018-06-19T12:38:39.454Z,6.70
2018-06-19T12:39:45.325Z,6.70
2018-06-19T12:40:53.556Z,7.17
2018-06-19T12:42:00.473Z,7.60
2018-06-19T12:43:10.205Z,6.30
2018-06-19T12:44:17.298Z,6.70
2018-06-19T12:45:24.959Z,6.90
2018-06-19T12:46:31.091Z,6.23
2018-06-19T12:47:39.528Z,6.50
2018-06-19T12:48:45.381Z,5.87
2018-06-19T12:50:30.550Z,6.40
2018-06-19T12:51:51.499Z,6.93
2018-06-19T12:53:07.229Z,6.30
2018-06-19T12:54:22.601Z,7.30
2018-06-19T12:55:38.124Z,6.70
2018-06-19T12:56:42.398Z,6.60
2018-06-19T12:57:46.812Z,7.00
2018-06-19T12:58:51.034Z,6.90
2018-06-19T12:59:55.301Z,7.30
2018-06-19T13:00:59.467Z,6.67
2018-06-19T13:02:03.631Z,6.70
2018-06-19T13:03:19.153Z,6.83
2018-06-19T13:04:34.661Z,6.30
2018-06-19T13:05:50.352Z,6.40
2018-06-19T13:06:54.601Z,7.23
2018-06-19T13:07:58.840Z,7.30
2018-06-19T13:09:03.339Z,6.43
2018-06-19T13:10:07.783Z,6.47
2018-06-19T13:11:12.068Z,6.30
2018-06-19T13:12:27.393Z,6.57
2018-06-19T13:13:42.815Z,6.53
2018-06-19T13:14:47.041Z,6.30
2018-06-19T13:15:52.364Z,6.67
2018-06-19T13:17:07.927Z,6.07
2018-06-19T13:18:23.484Z,6.60
2018-06-19T13:19:38.859Z,7.13
2018-06-19T13:20:48.386Z,7.60
2018-06-19T13:21:53.137Z,6.53
2018-06-19T13:22:57.382Z,7.23
2018-06-19T13:24:01.589Z,6.50
2018-06-19T13:25:05.836Z,6.80
2018-06-19T13:26:10.234Z,7.27
2018-06-19T13:27:14.420Z,7.07
2018-06-19T13:28:18.670Z,7.73
2018-06-19T13:29:44.456Z,7.37
2018-06-19T13:30:59.791Z,6.70
2018-06-19T13:32:04.823Z,7.27
2018-06-19T13:33:09.192Z,6.63
2018-06-19T13:34:13.411Z,7.60
2018-06-19T13:35:18.105Z,6.83
2018-06-19T13:36:22.586Z,7.40
2018-06-19T13:37:26.772Z,7.10
2018-06-19T13:38:30.939Z,7.63
2018-06-19T13:39:35.804Z,7.87
2018-06-19T13:41:18.343Z,6.80
2018-06-19T13:42:33.763Z,7.90
2018-06-19T13:43:49.078Z,6.70
2018-06-19T13:44:59.096Z,6.77
2018-06-19T13:46:03.292Z,7.27
2018-06-19T13:47:07.495Z,6.63
2018-06-19T13:48:11.747Z,6.53
2018-06-19T13:49:15.951Z,6.83
2018-06-19T13:50:20.200Z,6.10
2018-06-19T13:51:24.391Z,6.77
2018-06-19T13:52:28.756Z,6.20
2018-06-19T13:53:33.009Z,6.80
2018-06-19T13:54:37.181Z,7.80
2018-06-19T13:57:20.309Z,6.60
2018-06-19T13:58:24.669Z,6.00
2018-06-19T13:59:28.904Z,5.50
2018-06-19T14:00:33.122Z,6.10
2018-06-19T14:01:37.361Z,5.53
2018-06-19T14:02:41.549Z,5.33
2018-06-19T14:03:45.883Z,6.03
2018-06-19T14:04:50.447Z,5.73
2018-06-19T14:05:54.888Z,6.10
2018-06-19T14:06:59.112Z,5.43
2018-06-19T14:08:11.227Z,6.55
2018-06-19T14:09:27.413Z,6.20
2018-06-19T14:11:44.534Z,6.20
2018-06-19T14:12:56.168Z,6.17
2018-06-19T14:14:00.651Z,5.70
2018-06-19T14:15:04.834Z,5.43
2018-06-19T14:16:09.048Z,5.50